createdAt,value
2022-12-26T00:03:46.566Z,-67
2022-12-26T00:08:47.841Z,-67
2022-12-26T00:13:49.058Z,-67
2022-12-26T00:18:50.229Z,-67
2022-12-26T00:23:51.371Z,-66
2022-12-26T00:28:52.552Z,-67
2022-12-26T00:33:53.738Z,-67
2022-12-26T00:38:54.921Z,-67
2022-12-26T00:43:56.182Z,-67
2022-12-26T00:48:58.032Z,-67
2022-12-26T00:53:59.227Z,-67
2022-12-26T00:59:00.419Z,-67
2022-12-26T01:04:01.581Z,-68
2022-12-26T01:09:02.817Z,-67
2022-12-26T01:14:04.438Z,-67
2022-12-26T01:19:05.668Z,-68
2022-12-26T01:24:06.926Z,-67
2022-12-26T01:29:08.125Z,-67
2022-12-26T01:34:09.340Z,-66
2022-12-26T01:39:10.583Z,-67
2022-12-26T01:44:11.778Z,-67
2022-12-26T01:49:12.991Z,-67
2022-12-26T01:54:40.459Z,-68
2022-12-26T01:59:35.409Z,-67
2022-12-26T02:04:55.236Z,-67
2022-12-26T02:09:56.631Z,-67
2022-12-26T02:14:57.842Z,-67
2022-12-26T02:19:59.260Z,-67
2022-12-26T02:25:00.496Z,-67
2022-12-26T02:30:01.708Z,-67
2022-12-26T02:35:02.952Z,-67
2022-12-26T02:40:04.151Z,-67
2022-12-26T02:45:24.115Z,-67
2022-12-26T02:50:44.138Z,-67
2022-12-26T02:56:03.823Z,-67
2022-12-26T03:01:23.685Z,-67
2022-12-26T03:06:43.816Z,-67
2022-12-26T03:12:03.599Z,-67
2022-12-26T03:17:19.885Z,-67
2022-12-26T03:22:33.324Z,-67
2022-12-26T03:27:34.484Z,-68
2022-12-26T03:32:35.626Z,-67
2022-12-26T03:37:48.889Z,-67
2022-12-26T03:43:09.940Z,-67
2022-12-26T03:48:29.731Z,-67
2022-12-26T03:53:49.436Z,-67
2022-12-26T03:59:09.354Z,-68
2022-12-26T04:04:29.449Z,-67
2022-12-26T04:09:49.325Z,-67
2022-12-26T04:15:09.066Z,-67
2022-12-26T04:20:10.288Z,-66
2022-12-26T04:25:48.457Z,-67
2022-12-26T04:31:10.282Z,-67
2022-12-26T04:36:30.341Z,-67
2022-12-26T04:41:50.129Z,-67
2022-12-26T04:46:51.340Z,-67
2022-12-26T04:51:52.529Z,-66
2022-12-26T04:56:53.764Z,-67
2022-12-26T05:02:13.642Z,-67
2022-12-26T05:07:33.713Z,-67
2022-12-26T05:12:34.920Z,-67
2022-12-26T05:17:54.659Z,-67
2022-12-26T05:23:14.502Z,-67
2022-12-26T05:28:34.295Z,-67
2022-12-26T05:33:54.223Z,-68
2022-12-26T05:38:56.382Z,-67
2022-12-26T05:43:57.520Z,-67
2022-12-26T05:48:58.712Z,-68
2022-12-26T05:53:59.945Z,-67
2022-12-26T05:59:01.197Z,-67
2022-12-26T06:04:02.888Z,-67
2022-12-26T06:09:04.159Z,-68
2022-12-26T06:14:05.367Z,-67
2022-12-26T06:19:06.550Z,-67
2022-12-26T06:24:07.689Z,-67
2022-12-26T06:29:08.873Z,-67
2022-12-26T06:34:10.046Z,-67
2022-12-26T06:39:11.236Z,-67
2022-12-26T06:44:17.889Z,-67
2022-12-26T06:49:19.751Z,-67
2022-12-26T06:54:20.891Z,-67
2022-12-26T06:59:22.111Z,-67
2022-12-26T07:04:23.356Z,-67
2022-12-26T07:09:28.470Z,-67
2022-12-26T07:14:34.497Z,-67
2022-12-26T07:19:35.709Z,-68
2022-12-26T07:24:37.269Z,-71
2022-12-26T07:29:38.452Z,-67
2022-12-26T07:34:39.654Z,-67
2022-12-26T07:39:40.850Z,-67
2022-12-26T07:44:42.793Z,-67
2022-12-26T07:49:44.001Z,-67
2022-12-26T07:54:45.204Z,-66
2022-12-26T07:59:46.491Z,-67
2022-12-26T08:04:47.696Z,-67
2022-12-26T08:09:48.931Z,-67
2022-12-26T08:14:50.091Z,-67
2022-12-26T08:19:51.281Z,-66
2022-12-26T08:24:52.521Z,-67
2022-12-26T08:29:53.767Z,-66
2022-12-26T08:34:54.996Z,-67
2022-12-26T08:39:56.167Z,-67
2022-12-26T08:44:57.544Z,-72
2022-12-26T08:49:58.730Z,-67
2022-12-26T08:54:59.888Z,-67
2022-12-26T09:00:01.056Z,-67
2022-12-26T09:05:02.198Z,-67
2022-12-26T09:10:04.799Z,-67
2022-12-26T09:15:05.944Z,-66
2022-12-26T09:20:07.119Z,-67
2022-12-26T09:25:08.283Z,-67
2022-12-26T09:30:09.474Z,-67
2022-12-26T09:35:10.669Z,-67
2022-12-26T09:40:13.041Z,-67
2022-12-26T09:45:14.177Z,-67
2022-12-26T09:50:15.409Z,-67
2022-12-26T09:55:16.626Z,-67
2022-12-26T10:00:17.791Z,-67
2022-12-26T10:05:18.955Z,-68
2022-12-26T10:10:20.095Z,-69
2022-12-26T10:15:21.258Z,-68
2022-12-26T10:20:22.558Z,-67
2022-12-26T10:25:26.355Z,-68
2022-12-26T10:30:30.028Z,-67
2022-12-26T10:35:31.422Z,-68
2022-12-26T10:40:32.614Z,-67
2022-12-26T10:45:33.781Z,-67
2022-12-26T10:50:34.992Z,-66
2022-12-26T10:55:36.265Z,-66
2022-12-26T11:00:37.515Z,-66
2022-12-26T11:10:59.842Z,-66
2022-12-26T11:16:00.984Z,-66
2022-12-26T11:21:03.834Z,-66
2022-12-26T11:26:07.941Z,-66
2022-12-26T11:31:09.229Z,-66
2022-12-26T11:36:10.508Z,-66
2022-12-26T11:41:31.502Z,-66
2022-12-26T11:46:32.958Z,-66
2022-12-26T11:51:34.171Z,-66
2022-12-26T11:56:35.308Z,-66
2022-12-26T12:01:36.717Z,-66
2022-12-26T12:06:38.017Z,-66
2022-12-26T12:11:39.216Z,-66
2022-12-26T12:16:40.490Z,-66
2022-12-26T12:21:42.666Z,-66
2022-12-26T12:26:45.508Z,-66
2022-12-26T12:31:49.766Z,-66
2022-12-26T12:36:50.926Z,-66
2022-12-26T12:41:52.109Z,-66
2022-12-26T12:46:53.349Z,-66
2022-12-26T12:51:54.527Z,-66
2022-12-26T12:56:55.670Z,-66
2022-12-26T13:01:56.966Z,-66
2022-12-26T13:06:58.295Z,-66
2022-12-26T13:11:59.493Z,-66
2022-12-26T13:17:00.684Z,-66
2022-12-26T13:22:01.892Z,-65
2022-12-26T13:27:03.424Z,-65
2022-12-26T13:32:04.698Z,-66
2022-12-26T13:37:05.980Z,-66
2022-12-26T13:42:25.981Z,-67
2022-12-26T13:47:27.210Z,-67
2022-12-26T13:52:28.393Z,-67
2022-12-26T13:57:29.625Z,-67
2022-12-26T14:02:58.191Z,-67
2022-12-26T14:07:54.942Z,-67
2022-12-26T14:12:56.190Z,-68
2022-12-26T14:17:57.376Z,-67
2022-12-26T14:22:58.591Z,-67
2022-12-26T14:28:00.261Z,-67
2022-12-26T14:33:01.977Z,-66
2022-12-26T14:38:03.185Z,-67
2022-12-26T14:43:10.374Z,-66
2022-12-26T14:48:11.601Z,-66
2022-12-26T14:53:12.784Z,-67
2022-12-26T14:58:14.001Z,-66
2022-12-26T15:03:15.256Z,-66
2022-12-26T15:08:16.487Z,-66
2022-12-26T15:13:17.668Z,-66
2022-12-26T15:18:18.857Z,-66
2022-12-26T15:23:19.994Z,-66
2022-12-26T15:28:21.175Z,-66
2022-12-26T15:33:22.389Z,-66
2022-12-26T15:38:23.557Z,-66
2022-12-26T15:43:24.698Z,-66
2022-12-26T15:48:25.884Z,-66
2022-12-26T15:53:27.145Z,-66
2022-12-26T15:58:28.295Z,-66
2022-12-26T16:03:29.624Z,-66
2022-12-26T16:08:30.874Z,-66
2022-12-26T16:13:32.081Z,-66
2022-12-26T16:18:33.382Z,-66
2022-12-26T16:23:34.607Z,-66
2022-12-26T16:28:35.797Z,-67
2022-12-26T16:33:36.947Z,-66
2022-12-26T16:38:38.124Z,-66
2022-12-26T16:43:39.305Z,-66
2022-12-26T16:48:40.512Z,-66
2022-12-26T16:53:41.764Z,-66
2022-12-26T16:58:43.061Z,-66
2022-12-26T17:03:44.430Z,-66
2022-12-26T17:08:45.645Z,-66
2022-12-26T17:13:46.823Z,-66
2022-12-26T17:18:48.005Z,-66
2022-12-26T17:23:49.253Z,-66
2022-12-26T17:28:50.447Z,-66
2022-12-26T17:33:51.678Z,-66
2022-12-26T17:38:52.857Z,-66
2022-12-26T17:43:54.057Z,-66
2022-12-26T17:48:56.261Z,-65
2022-12-26T17:53:57.431Z,-66
2022-12-26T17:58:58.656Z,-66
2022-12-26T18:03:59.870Z,-66
2022-12-26T18:09:01.057Z,-66
2022-12-26T18:14:02.721Z,-66
2022-12-26T18:19:03.922Z,-65
2022-12-26T18:24:05.097Z,-65
2022-12-26T18:29:06.225Z,-65
2022-12-26T18:34:07.502Z,-64
2022-12-26T18:39:08.639Z,-66
2022-12-26T18:44:09.872Z,-66
2022-12-26T18:49:11.057Z,-67
2022-12-26T18:54:12.189Z,-66
2022-12-26T18:59:13.411Z,-65
2022-12-26T19:04:14.626Z,-65
2022-12-26T19:09:15.836Z,-68
2022-12-26T19:14:17.035Z,-68
2022-12-26T19:19:18.407Z,-68
2022-12-26T19:24:19.574Z,-65
2022-12-26T19:29:20.782Z,-66
2022-12-26T19:34:23.129Z,-67
2022-12-26T19:39:24.413Z,-67
2022-12-26T19:44:25.714Z,-67
2022-12-26T19:49:33.420Z,-67
2022-12-26T19:54:35.129Z,-67
2022-12-26T19:59:36.376Z,-67
2022-12-26T20:04:37.718Z,-67
2022-12-26T20:09:39.232Z,-67
2022-12-26T20:14:40.648Z,-67
2022-12-26T20:19:43.966Z,-68
2022-12-26T20:24:47.239Z,-68
2022-12-26T20:29:48.772Z,-68
2022-12-26T20:34:50.269Z,-67
2022-12-26T20:39:51.693Z,-67
2022-12-26T20:44:53.014Z,-65
2022-12-26T20:49:54.252Z,-65
2022-12-26T20:54:55.468Z,-65
2022-12-26T20:59:56.879Z,-67
2022-12-26T21:05:00.272Z,-66
2022-12-26T21:10:04.770Z,-68
2022-12-26T21:15:06.268Z,-65
2022-12-26T21:20:07.457Z,-64
2022-12-26T21:25:08.667Z,-64
2022-12-26T21:30:09.885Z,-65
2022-12-26T21:35:11.082Z,-65
2022-12-26T21:40:12.307Z,-65
2022-12-26T21:45:13.446Z,-65
2022-12-26T21:50:14.655Z,-65
2022-12-26T21:55:27.904Z,-66
2022-12-26T22:00:29.150Z,-65
2022-12-26T22:05:30.398Z,-65
2022-12-26T22:10:50.480Z,-65
2022-12-26T22:16:04.125Z,-65
2022-12-26T22:21:05.450Z,-65
2022-12-26T22:26:06.731Z,-65
2022-12-26T22:31:07.982Z,-65
2022-12-26T22:36:09.275Z,-65
2022-12-26T22:41:10.462Z,-64
2022-12-26T22:46:11.813Z,-64
2022-12-26T22:51:13.061Z,-64
2022-12-26T22:56:14.256Z,-65
2022-12-26T23:01:15.589Z,-64
2022-12-26T23:06:16.935Z,-67
2022-12-26T23:11:18.068Z,-65
2022-12-26T23:16:19.366Z,-64
2022-12-26T23:21:38.684Z,-64
2022-12-26T23:26:39.913Z,-64
2022-12-26T23:31:41.189Z,-64
2022-12-26T23:36:42.433Z,-64
2022-12-26T23:41:43.644Z,-64
2022-12-26T23:46:44.841Z,-64
2022-12-26T23:51:46.002Z,-64
2022-12-26T23:56:47.188Z,-64
